createdAt,value
2018-12-27T00:00:54.976Z,99429.45
2018-12-27T00:05:00.662Z,99431.05
2018-12-27T00:09:07.967Z,99429.47
2018-12-27T00:13:13.662Z,99422.97
2018-12-27T00:17:19.457Z,99420.31
2018-12-27T00:21:25.153Z,99416.94
2018-12-27T00:25:30.845Z,99408.88
2018-12-27T00:29:36.547Z,99411.09
2018-12-27T00:33:42.424Z,99403.58
2018-12-27T00:37:48.329Z,99397.87
2018-12-27T00:41:54.245Z,99393.16
2018-12-27T00:46:01.803Z,99390.45
2018-12-27T00:50:07.674Z,99389.75
2018-12-27T00:54:13.578Z,99389.88
2018-12-27T00:58:29.629Z,99385.53
2018-12-27T01:02:47.488Z,99393.61
2018-12-27T01:07:30.313Z,99395.45
2018-12-27T01:16:41.454Z,99396.65
2018-12-27T01:20:59.084Z,99396.34
2018-12-27T01:35:12.449Z,99391.67
2018-12-27T02:19:23.917Z,99371.53
2018-12-27T02:39:44.737Z,99347.45
2018-12-27T03:19:12.659Z,99300.02
2018-12-27T03:34:36.768Z,99293.20
2018-12-27T03:58:35.900Z,99269.37
2018-12-27T04:17:45.679Z,99250.12
2018-12-27T04:22:10.719Z,99246.64
2018-12-27T04:31:04.332Z,99242.34
2018-12-27T04:35:16.801Z,99236.75
2018-12-27T04:39:22.632Z,99239.23
2018-12-27T04:43:29.151Z,99241.25
2018-12-27T04:47:35.090Z,99240.23
2018-12-27T04:51:40.845Z,99250.30
2018-12-27T04:55:46.591Z,99248.84
2018-12-27T04:59:53.729Z,99251.64
2018-12-27T05:03:59.589Z,99256.34
2018-12-27T05:08:10.781Z,99249.33
2018-12-27T05:12:16.508Z,99240.61
2018-12-27T05:16:22.303Z,99248.42
2018-12-27T05:20:28.140Z,99249.89
2018-12-27T05:24:33.930Z,99251.77
2018-12-27T05:28:39.684Z,99257.16
2018-12-27T05:32:45.447Z,99258.30
2018-12-27T05:36:51.298Z,99262.55
2018-12-27T05:40:57.080Z,99260.55
2018-12-27T05:45:03.147Z,99257.28
2018-12-27T05:49:14.773Z,99254.27
2018-12-27T05:53:20.504Z,99256.75
2018-12-27T05:57:26.507Z,99252.05
2018-12-27T06:01:32.680Z,99256.64
2018-12-27T06:05:38.542Z,99260.19
2018-12-27T06:09:45.985Z,99255.92
2018-12-27T06:13:53.713Z,99247.89
2018-12-27T06:17:59.415Z,99242.48
2018-12-27T06:22:11.441Z,99243.45
2018-12-27T06:26:17.157Z,99241.39
2018-12-27T06:30:22.960Z,99252.80
2018-12-27T06:34:28.793Z,99254.13
2018-12-27T06:38:34.669Z,99258.95
2018-12-27T06:42:40.390Z,99245.87
2018-12-27T06:46:46.219Z,99238.69
2018-12-27T06:50:52.085Z,99246.30
2018-12-27T06:54:57.826Z,99248.67
2018-12-27T06:59:03.817Z,99257.06
2018-12-27T07:03:13.778Z,99253.59
2018-12-27T07:07:19.508Z,99259.21
2018-12-27T07:11:25.247Z,99252.64
2018-12-27T07:15:31.137Z,99243.34
2018-12-27T07:19:37.020Z,99232.84
2018-12-27T07:23:43.052Z,99239.42
2018-12-27T07:27:50.437Z,99243.35
2018-12-27T07:31:56.243Z,99240.55
2018-12-27T07:36:02.086Z,99239.63
2018-12-27T07:40:14.304Z,99237.63
2018-12-27T07:44:20.074Z,99241.48
2018-12-27T07:48:27.992Z,99241.27
2018-12-27T07:52:40.541Z,99240.33
2018-12-27T07:56:51.687Z,99241.46
2018-12-27T08:00:57.476Z,99236.63
2018-12-27T08:09:20.819Z,99235.22
2018-12-27T08:13:26.562Z,99230.16
2018-12-27T08:17:35.341Z,99231.11
2018-12-27T08:21:41.103Z,99222.73
2018-12-27T08:25:47.356Z,99222.66
2018-12-27T08:29:53.178Z,99228.84
2018-12-27T08:33:58.991Z,99228.26
2018-12-27T08:38:04.950Z,99228.31
2018-12-27T08:42:16.615Z,99224.59
2018-12-27T08:46:22.438Z,99226.24
2018-12-27T08:50:28.258Z,99229.82
2018-12-27T08:54:34.253Z,99230.38
2018-12-27T08:58:40.032Z,99228.98
2018-12-27T09:02:45.710Z,99221.75
2018-12-27T09:06:51.580Z,99224.62
2018-12-27T09:10:57.708Z,99222.66
2018-12-27T09:15:13.429Z,99225.77
2018-12-27T09:19:19.254Z,99219.97
2018-12-27T09:23:25.084Z,99217.34
2018-12-27T09:27:30.993Z,99217.20
2018-12-27T09:31:36.998Z,99213.98
2018-12-27T09:35:42.818Z,99216.52
2018-12-27T09:39:51.520Z,99209.41
2018-12-27T10:04:53.652Z,99195.69
2018-12-27T10:08:59.400Z,99202.28
2018-12-27T10:13:05.264Z,99199.25
2018-12-27T10:17:16.865Z,99202.07
2018-12-27T10:21:22.596Z,99203.21
2018-12-27T10:25:28.269Z,99188.09
2018-12-27T10:29:33.991Z,99184.30
2018-12-27T10:33:39.827Z,99185.74
2018-12-27T10:37:45.570Z,99188.69
2018-12-27T10:41:51.284Z,99187.17
2018-12-27T10:45:57.069Z,99183.63
2018-12-27T10:50:04.767Z,99177.33
2018-12-27T10:54:15.166Z,99165.62
2018-12-27T10:58:20.888Z,99163.88
2018-12-27T11:02:26.623Z,99160.02
2018-12-27T11:06:32.350Z,99157.19
2018-12-27T11:10:38.176Z,99138.05
2018-12-27T11:15:03.288Z,99135.88
2018-12-27T11:19:13.466Z,99126.08
2018-12-27T11:23:19.315Z,99119.20
2018-12-27T11:27:25.074Z,99112.05
2018-12-27T11:31:30.835Z,99113.78
2018-12-27T11:35:36.545Z,99106.19
2018-12-27T11:39:42.284Z,99099.85
2018-12-27T11:43:48.057Z,99093.83
2018-12-27T11:47:53.782Z,99090.11
2018-12-27T11:51:59.503Z,99081.57
2018-12-27T11:56:05.333Z,99077.91
2018-12-27T12:00:16.582Z,99079.83
2018-12-27T12:04:22.327Z,99075.16
2018-12-27T12:08:28.086Z,99074.42
2018-12-27T12:12:33.812Z,99066.89
2018-12-27T12:16:39.577Z,99063.97
2018-12-27T12:20:45.307Z,99063.14
2018-12-27T12:24:51.021Z,99058.02
2018-12-27T12:28:56.777Z,99050.88
2018-12-27T12:33:02.580Z,99046.28
2018-12-27T12:37:14.212Z,99040.12
2018-12-27T12:41:19.502Z,99040.05
2018-12-27T12:45:25.232Z,99040.98
2018-12-27T12:49:30.922Z,99038.94
2018-12-27T12:53:36.655Z,99037.22
2018-12-27T12:57:42.427Z,99038.72
2018-12-27T13:01:48.107Z,99032.24
2018-12-27T13:05:53.837Z,99027.70
2018-12-27T13:09:59.609Z,99035.01
2018-12-27T13:14:05.367Z,99035.70
2018-12-27T13:18:17.883Z,99030.64
2018-12-27T13:22:23.792Z,99029.25
2018-12-27T13:26:29.498Z,99025.92
2018-12-27T13:30:35.216Z,99024.93
2018-12-27T13:34:40.979Z,99010.98
2018-12-27T13:38:46.723Z,99010.22
2018-12-27T13:42:52.476Z,99007.12
2018-12-27T13:46:58.330Z,99006.91
2018-12-27T13:51:04.120Z,99014.25
2018-12-27T13:55:17.207Z,99015.58
2018-12-27T13:59:22.886Z,99012.88
2018-12-27T14:03:28.616Z,99013.67
2018-12-27T14:07:34.361Z,99009.58
2018-12-27T14:11:40.094Z,99014.40
2018-12-27T14:15:45.814Z,99012.79
2018-12-27T14:19:51.544Z,99007.94
2018-12-27T14:23:57.351Z,99007.34
2018-12-27T14:28:03.055Z,99012.16
2018-12-27T14:32:14.652Z,99011.74
2018-12-27T14:36:20.482Z,99015.01
2018-12-27T14:40:26.183Z,99015.95
2018-12-27T14:44:31.937Z,99017.11
2018-12-27T14:48:54.645Z,99015.16
2018-12-27T14:53:00.534Z,99020.85
2018-12-27T15:12:00.375Z,99030.48
2018-12-27T15:16:21.744Z,99021.40
2018-12-27T15:20:46.822Z,99026.36
2018-12-27T15:25:11.507Z,99028.31
2018-12-27T15:29:29.374Z,99020.63
2018-12-27T15:33:54.534Z,99017.11
2018-12-27T15:38:12.478Z,99013.36
2018-12-27T15:42:55.788Z,99015.45
2018-12-27T15:47:13.502Z,99017.61
2018-12-27T15:52:34.593Z,99011.28
2018-12-27T15:56:52.250Z,99020.34
2018-12-27T16:06:16.360Z,99028.33
2018-12-27T16:10:53.097Z,99042.98
2018-12-27T16:15:18.147Z,99041.34
2018-12-27T16:19:55.021Z,99041.19
2018-12-27T16:24:20.066Z,99050.22
2018-12-27T16:28:50.244Z,99053.11
2018-12-27T16:33:08.476Z,99051.93
2018-12-27T16:48:05.511Z,99053.81
2018-12-27T16:52:48.335Z,99048.33
2018-12-27T17:02:12.714Z,99044.09
2018-12-27T17:06:57.079Z,99045.37
2018-12-27T17:22:06.210Z,99052.25
2018-12-27T17:31:58.653Z,99049.12
2018-12-27T17:36:16.269Z,99046.99
2018-12-27T17:40:59.029Z,99056.43
2018-12-27T17:45:16.628Z,99049.94
2018-12-27T17:50:24.280Z,99051.23
2018-12-27T17:54:49.352Z,99053.39
2018-12-27T17:59:05.395Z,99055.78
2018-12-27T18:03:49.790Z,99057.80
2018-12-27T18:08:08.036Z,99051.73
2018-12-27T18:12:52.469Z,99054.94
2018-12-27T18:16:58.184Z,99061.27
2018-12-27T18:21:04.011Z,99046.64
2018-12-27T18:25:09.740Z,99049.96
2018-12-27T18:29:15.446Z,99050.91
2018-12-27T18:33:21.200Z,99053.60
2018-12-27T18:37:50.780Z,99055.36
2018-12-27T18:41:56.496Z,99055.86
2018-12-27T18:46:02.182Z,99065.73
2018-12-27T18:50:07.940Z,99068.57
2018-12-27T18:54:13.618Z,99062.50
2018-12-27T18:58:49.354Z,99059.38
2018-12-27T19:02:55.087Z,99063.19
2018-12-27T19:07:00.854Z,99062.56
2018-12-27T19:12:00.227Z,99067.76
2018-12-27T19:16:05.960Z,99066.78
2018-12-27T19:20:11.931Z,99065.44
2018-12-27T19:24:17.654Z,99068.48
2018-12-27T19:28:50.486Z,99077.91
2018-12-27T19:32:56.206Z,99083.51
2018-12-27T19:37:01.908Z,99084.49
2018-12-27T19:41:07.612Z,99079.78
2018-12-27T19:45:13.391Z,99078.69
2018-12-27T19:49:19.114Z,99079.17
2018-12-27T19:53:24.812Z,99079.17
2018-12-27T19:57:30.526Z,99086.91
2018-12-27T20:01:48.271Z,99087.27
2018-12-27T20:24:46.721Z,99079.12
2018-12-27T20:29:49.097Z,99091.83
2018-12-27T20:33:54.802Z,99086.83
2018-12-27T20:38:48.773Z,99095.78
2018-12-27T20:42:54.505Z,99091.34
2018-12-27T20:51:49.848Z,99083.25
2018-12-27T20:55:55.628Z,99083.12
2018-12-27T21:00:01.330Z,99076.18
2018-12-27T21:04:07.137Z,99081.58
2018-12-27T21:08:49.153Z,99083.25
2018-12-27T21:12:54.834Z,99076.71
2018-12-27T21:17:00.559Z,99080.13
2018-12-27T21:21:06.255Z,99074.11
2018-12-27T21:25:12.054Z,99069.44
2018-12-27T21:29:17.716Z,99066.11
2018-12-27T21:33:23.405Z,99065.27
2018-12-27T21:38:00.531Z,99070.25
2018-12-27T21:43:04.137Z,99073.88
2018-12-27T21:47:21.742Z,99067.03
2018-12-27T21:51:46.784Z,99073.00
2018-12-27T21:56:04.353Z,99071.02
2018-12-27T22:00:29.396Z,99065.34
2018-12-27T22:04:45.352Z,99062.03
2018-12-27T22:09:10.398Z,99072.67
2018-12-27T22:13:28.231Z,99073.67
2018-12-27T22:17:53.285Z,99080.16
2018-12-27T22:22:10.985Z,99077.13
2018-12-27T22:26:37.618Z,99081.25
2018-12-27T22:31:04.514Z,99074.66
2018-12-27T22:35:29.627Z,99081.31
2018-12-27T22:39:50.237Z,99081.08
2018-12-27T22:44:27.324Z,99075.41
2018-12-27T22:48:52.380Z,99076.27
2018-12-27T22:53:10.032Z,99086.93
2018-12-27T23:02:51.051Z,99085.70
2018-12-27T23:12:53.333Z,99070.44
2018-12-27T23:17:10.901Z,99063.91
2018-12-27T23:21:37.017Z,99067.41
2018-12-27T23:25:57.642Z,99067.92
2018-12-27T23:30:22.749Z,99061.91
2018-12-27T23:34:40.465Z,99074.31
2018-12-27T23:39:26.300Z,99060.41
2018-12-27T23:43:50.529Z,99061.13
2018-12-27T23:48:08.777Z,99057.09
2018-12-27T23:52:26.400Z,99045.63
2018-12-27T23:56:52.550Z,99047.45
